sensor_id;sensor_type;location;lat;lon;timestamp;temperature;humidity
20977;DHT22;10647;51.016;3.720;2023-04-16T00:00:12;10.20;99.90
20977;DHT22;10647;51.016;3.720;2023-04-16T00:02:40;10.10;99.90
20977;DHT22;10647;51.016;3.720;2023-04-16T00:05:08;10.10;99.90
20977;DHT22;10647;51.016;3.720;2023-04-16T00:07:55;10.10;99.90
20977;DHT22;10647;51.016;3.720;2023-04-16T00:10:22;10.10;99.90
20977;DHT22;10647;51.016;3.720;2023-04-16T00:12:50;10.20;99.90
20977;DHT22;10647;51.016;3.720;2023-04-16T00:15:19;10.20;99.90
20977;DHT22;10647;51.016;3.720;2023-04-16T00:17:47;10.10;99.90
20977;DHT22;10647;51.016;3.720;2023-04-16T00:20:34;10.10;99.90
20977;DHT22;10647;51.016;3.720;2023-04-16T00:23:03;10.20;99.90
20977;DHT22;10647;51.016;3.720;2023-04-16T00:25:31;10.20;99.90
20977;DHT22;10647;51.016;3.720;2023-04-16T00:28:01;10.10;99.90
20977;DHT22;10647;51.016;3.720;2023-04-16T00:30:28;10.20;99.90
20977;DHT22;10647;51.016;3.720;2023-04-16T00:32:56;10.10;99.90
20977;DHT22;10647;51.016;3.720;2023-04-16T00:35:24;10.20;99.90
20977;DHT22;10647;51.016;3.720;2023-04-16T00:37:54;10.10;99.90
20977;DHT22;10647;51.016;3.720;2023-04-16T00:40:22;10.20;99.90
20977;DHT22;10647;51.016;3.720;2023-04-16T00:42:49;10.20;99.90
20977;DHT22;10647;51.016;3.720;2023-04-16T00:45:20;10.20;99.90
20977;DHT22;10647;51.016;3.720;2023-04-16T00:47:48;10.20;99.90
20977;DHT22;10647;51.016;3.720;2023-04-16T00:50:16;10.20;99.90
20977;DHT22;10647;51.016;3.720;2023-04-16T00:52:46;10.30;99.90
20977;DHT22;10647;51.016;3.720;2023-04-16T00:55:14;10.40;99.90
20977;DHT22;10647;51.016;3.720;2023-04-16T00:57:46;10.30;99.90
20977;DHT22;10647;51.016;3.720;2023-04-16T01:00:13;10.40;99.90
20977;DHT22;10647;51.016;3.720;2023-04-16T01:02:47;10.40;99.90
20977;DHT22;10647;51.016;3.720;2023-04-16T01:05:15;10.40;99.90
20977;DHT22;10647;51.016;3.720;2023-04-16T01:07:42;10.40;99.90
20977;DHT22;10647;51.016;3.720;2023-04-16T01:10:29;10.30;99.90
20977;DHT22;10647;51.016;3.720;2023-04-16T01:13:02;10.30;99.90
20977;DHT22;10647;51.016;3.720;2023-04-16T01:15:30;10.30;99.90
20977;DHT22;10647;51.016;3.720;2023-04-16T01:17:58;10.30;99.90
20977;DHT22;10647;51.016;3.720;2023-04-16T01:20:25;10.20;99.90
20977;DHT22;10647;51.016;3.720;2023-04-16T01:22:53;10.20;99.90
20977;DHT22;10647;51.016;3.720;2023-04-16T01:25:20;10.20;99.90
20977;DHT22;10647;51.016;3.720;2023-04-16T01:27:50;10.20;99.90
20977;DHT22;10647;51.016;3.720;2023-04-16T01:30:21;10.30;99.90
20977;DHT22;10647;51.016;3.720;2023-04-16T01:32:49;10.30;99.90
20977;DHT22;10647;51.016;3.720;2023-04-16T01:35:17;10.30;99.90
20977;DHT22;10647;51.016;3.720;2023-04-16T01:37:44;10.30;99.90
20977;DHT22;10647;51.016;3.720;2023-04-16T01:40:13;10.30;99.90
20977;DHT22;10647;51.016;3.720;2023-04-16T01:42:43;10.30;99.90
20977;DHT22;10647;51.016;3.720;2023-04-16T01:45:11;10.30;99.90
20977;DHT22;10647;51.016;3.720;2023-04-16T01:47:40;10.50;99.90
20977;DHT22;10647;51.016;3.720;2023-04-16T01:50:08;10.40;99.90
20977;DHT22;10647;51.016;3.720;2023-04-16T01:52:36;10.50;99.90
20977;DHT22;10647;51.016;3.720;2023-04-16T01:55:03;10.50;99.90
20977;DHT22;10647;51.016;3.720;2023-04-16T01:57:32;10.50;99.90
20977;DHT22;10647;51.016;3.720;2023-04-16T02:00:01;10.40;99.90
20977;DHT22;10647;51.016;3.720;2023-04-16T02:02:30;10.50;99.90
20977;DHT22;10647;51.016;3.720;2023-04-16T02:04:57;10.50;99.90
20977;DHT22;10647;51.016;3.720;2023-04-16T02:07:31;10.50;99.90
20977;DHT22;10647;51.016;3.720;2023-04-16T02:09:58;10.50;99.90
20977;DHT22;10647;51.016;3.720;2023-04-16T02:12:27;10.40;99.90
20977;DHT22;10647;51.016;3.720;2023-04-16T02:14:54;10.40;99.90
20977;DHT22;10647;51.016;3.720;2023-04-16T02:17:22;10.30;99.90
20977;DHT22;10647;51.016;3.720;2023-04-16T02:19:50;10.30;99.90
20977;DHT22;10647;51.016;3.720;2023-04-16T02:22:18;10.20;99.90
20977;DHT22;10647;51.016;3.720;2023-04-16T02:24:45;10.30;99.90
20977;DHT22;10647;51.016;3.720;2023-04-16T02:27:13;10.40;99.90
20977;DHT22;10647;51.016;3.720;2023-04-16T02:29:41;10.50;99.90
20977;DHT22;10647;51.016;3.720;2023-04-16T02:32:08;10.30;99.90
20977;DHT22;10647;51.016;3.720;2023-04-16T02:34:36;10.40;99.90
20977;DHT22;10647;51.016;3.720;2023-04-16T02:37:05;10.50;99.90
20977;DHT22;10647;51.016;3.720;2023-04-16T02:39:33;10.50;99.90
20977;DHT22;10647;51.016;3.720;2023-04-16T02:42:00;10.50;99.90
20977;DHT22;10647;51.016;3.720;2023-04-16T02:44:28;10.50;99.90
20977;DHT22;10647;51.016;3.720;2023-04-16T02:46:55;10.60;99.90
20977;DHT22;10647;51.016;3.720;2023-04-16T02:49:23;10.50;99.90
20977;DHT22;10647;51.016;3.720;2023-04-16T02:51:50;10.60;99.90
20977;DHT22;10647;51.016;3.720;2023-04-16T02:54:18;10.70;99.90
20977;DHT22;10647;51.016;3.720;2023-04-16T02:56:45;10.70;99.90
20977;DHT22;10647;51.016;3.720;2023-04-16T02:59:13;10.60;99.90
20977;DHT22;10647;51.016;3.720;2023-04-16T03:01:41;10.70;99.90
20977;DHT22;10647;51.016;3.720;2023-04-16T03:04:09;10.60;99.90
20977;DHT22;10647;51.016;3.720;2023-04-16T03:06:37;10.50;99.90
20977;DHT22;10647;51.016;3.720;2023-04-16T03:09:04;10.50;99.90
20977;DHT22;10647;51.016;3.720;2023-04-16T03:11:32;10.60;99.90
20977;DHT22;10647;51.016;3.720;2023-04-16T03:13:59;10.70;99.90
20977;DHT22;10647;51.016;3.720;2023-04-16T03:16:28;10.50;99.90
20977;DHT22;10647;51.016;3.720;2023-04-16T03:18:56;10.50;99.90
20977;DHT22;10647;51.016;3.720;2023-04-16T03:21:24;10.40;99.90
20977;DHT22;10647;51.016;3.720;2023-04-16T03:23:53;10.30;99.90
20977;DHT22;10647;51.016;3.720;2023-04-16T03:26:22;10.20;99.90
20977;DHT22;10647;51.016;3.720;2023-04-16T03:28:49;10.20;99.90
20977;DHT22;10647;51.016;3.720;2023-04-16T03:31:17;10.20;99.90
20977;DHT22;10647;51.016;3.720;2023-04-16T03:33:44;10.10;99.90
20977;DHT22;10647;51.016;3.720;2023-04-16T03:36:13;10.10;99.90
20977;DHT22;10647;51.016;3.720;2023-04-16T03:38:40;10.20;99.90
20977;DHT22;10647;51.016;3.720;2023-04-16T03:41:08;10.30;99.90
20977;DHT22;10647;51.016;3.720;2023-04-16T03:43:35;10.20;99.90
20977;DHT22;10647;51.016;3.720;2023-04-16T03:46:06;10.20;99.90
20977;DHT22;10647;51.016;3.720;2023-04-16T03:48:34;10.20;99.90
20977;DHT22;10647;51.016;3.720;2023-04-16T03:51:03;10.30;99.90
20977;DHT22;10647;51.016;3.720;2023-04-16T03:53:30;10.30;99.90
20977;DHT22;10647;51.016;3.720;2023-04-16T03:55:59;10.40;99.90
20977;DHT22;10647;51.016;3.720;2023-04-16T03:58:26;10.40;99.90
20977;DHT22;10647;51.016;3.720;2023-04-16T04:00:54;10.40;99.90
20977;DHT22;10647;51.016;3.720;2023-04-16T04:03:23;10.50;99.90
20977;DHT22;10647;51.016;3.720;2023-04-16T04:05:51;10.50;99.90
20977;DHT22;10647;51.016;3.720;2023-04-16T04:08:19;10.50;99.90
20977;DHT22;10647;51.016;3.720;2023-04-16T04:10:46;10.60;99.90
20977;DHT22;10647;51.016;3.720;2023-04-16T04:13:14;10.60;99.90
20977;DHT22;10647;51.016;3.720;2023-04-16T04:15:43;10.60;99.90
20977;DHT22;10647;51.016;3.720;2023-04-16T04:18:10;10.60;99.90
20977;DHT22;10647;51.016;3.720;2023-04-16T04:20:41;10.50;99.90
20977;DHT22;10647;51.016;3.720;2023-04-16T04:23:08;10.50;99.90
20977;DHT22;10647;51.016;3.720;2023-04-16T04:25:36;10.50;99.90
20977;DHT22;10647;51.016;3.720;2023-04-16T04:28:05;10.50;99.90
20977;DHT22;10647;51.016;3.720;2023-04-16T04:30:33;10.50;99.90
20977;DHT22;10647;51.016;3.720;2023-04-16T04:33:01;10.50;99.90
20977;DHT22;10647;51.016;3.720;2023-04-16T04:35:29;10.30;99.90
20977;DHT22;10647;51.016;3.720;2023-04-16T04:37:57;10.30;99.90
20977;DHT22;10647;51.016;3.720;2023-04-16T04:40:24;10.40;99.90
20977;DHT22;10647;51.016;3.720;2023-04-16T04:42:52;10.50;99.90
20977;DHT22;10647;51.016;3.720;2023-04-16T04:45:19;10.50;99.90
20977;DHT22;10647;51.016;3.720;2023-04-16T04:47:49;10.60;99.90
20977;DHT22;10647;51.016;3.720;2023-04-16T04:50:16;10.70;99.90
20977;DHT22;10647;51.016;3.720;2023-04-16T04:52:44;10.70;99.90
20977;DHT22;10647;51.016;3.720;2023-04-16T04:55:11;10.70;99.90
20977;DHT22;10647;51.016;3.720;2023-04-16T04:57:41;10.70;99.90
20977;DHT22;10647;51.016;3.720;2023-04-16T05:00:09;10.80;99.90
20977;DHT22;10647;51.016;3.720;2023-04-16T05:02:36;10.90;99.90
20977;DHT22;10647;51.016;3.720;2023-04-16T05:05:04;10.90;99.90
20977;DHT22;10647;51.016;3.720;2023-04-16T05:07:32;10.90;99.90
20977;DHT22;10647;51.016;3.720;2023-04-16T05:10:00;10.80;99.90
20977;DHT22;10647;51.016;3.720;2023-04-16T05:12:28;10.70;99.90
20977;DHT22;10647;51.016;3.720;2023-04-16T05:14:56;10.70;99.90
20977;DHT22;10647;51.016;3.720;2023-04-16T05:17:25;10.60;99.90
20977;DHT22;10647;51.016;3.720;2023-04-16T05:19:52;10.50;99.90
20977;DHT22;10647;51.016;3.720;2023-04-16T05:22:20;10.50;99.90
20977;DHT22;10647;51.016;3.720;2023-04-16T05:24:48;10.50;99.90
20977;DHT22;10647;51.016;3.720;2023-04-16T05:27:16;10.50;99.90
20977;DHT22;10647;51.016;3.720;2023-04-16T05:29:43;10.50;99.90
20977;DHT22;10647;51.016;3.720;2023-04-16T05:32:12;10.70;99.90
20977;DHT22;10647;51.016;3.720;2023-04-16T05:34:39;10.70;99.90
20977;DHT22;10647;51.016;3.720;2023-04-16T05:37:07;10.80;99.90
20977;DHT22;10647;51.016;3.720;2023-04-16T05:39:34;10.70;99.90
20977;DHT22;10647;51.016;3.720;2023-04-16T05:42:05;10.80;99.90
20977;DHT22;10647;51.016;3.720;2023-04-16T05:44:33;11.00;99.90
20977;DHT22;10647;51.016;3.720;2023-04-16T05:47:02;11.00;99.90
20977;DHT22;10647;51.016;3.720;2023-04-16T05:49:29;11.10;99.90
20977;DHT22;10647;51.016;3.720;2023-04-16T05:51:58;11.10;99.90
20977;DHT22;10647;51.016;3.720;2023-04-16T05:54:25;11.00;99.90
20977;DHT22;10647;51.016;3.720;2023-04-16T05:56:53;11.00;99.90
20977;DHT22;10647;51.016;3.720;2023-04-16T05:59:20;10.90;99.90
20977;DHT22;10647;51.016;3.720;2023-04-16T06:01:48;11.00;99.90
20977;DHT22;10647;51.016;3.720;2023-04-16T06:04:15;11.00;99.90
20977;DHT22;10647;51.016;3.720;2023-04-16T06:06:44;11.10;99.90
20977;DHT22;10647;51.016;3.720;2023-04-16T06:09:11;11.10;99.90
20977;DHT22;10647;51.016;3.720;2023-04-16T06:11:39;11.20;99.90
20977;DHT22;10647;51.016;3.720;2023-04-16T06:14:06;11.30;99.90
20977;DHT22;10647;51.016;3.720;2023-04-16T06:16:34;11.30;99.90
20977;DHT22;10647;51.016;3.720;2023-04-16T06:19:21;11.20;99.90
20977;DHT22;10647;51.016;3.720;2023-04-16T06:21:49;11.20;99.90
20977;DHT22;10647;51.016;3.720;2023-04-16T06:27:07;11.30;99.90
20977;DHT22;10647;51.016;3.720;2023-04-16T06:29:35;11.50;99.90
20977;DHT22;10647;51.016;3.720;2023-04-16T06:32:03;11.50;99.90
20977;DHT22;10647;51.016;3.720;2023-04-16T06:34:31;11.60;99.90
20977;DHT22;10647;51.016;3.720;2023-04-16T06:37:04;11.50;99.90
20977;DHT22;10647;51.016;3.720;2023-04-16T06:39:35;11.50;99.90
20977;DHT22;10647;51.016;3.720;2023-04-16T06:42:08;11.50;99.90
20977;DHT22;10647;51.016;3.720;2023-04-16T06:44:36;11.60;99.90
20977;DHT22;10647;51.016;3.720;2023-04-16T06:47:03;11.70;99.90
20977;DHT22;10647;51.016;3.720;2023-04-16T06:49:31;11.80;99.90
20977;DHT22;10647;51.016;3.720;2023-04-16T06:51:58;11.90;99.90
20977;DHT22;10647;51.016;3.720;2023-04-16T06:54:26;12.10;99.90
20977;DHT22;10647;51.016;3.720;2023-04-16T06:56:55;12.20;99.90
20977;DHT22;10647;51.016;3.720;2023-04-16T06:59:23;12.30;99.90
20977;DHT22;10647;51.016;3.720;2023-04-16T07:01:51;12.10;99.90
20977;DHT22;10647;51.016;3.720;2023-04-16T07:04:21;12.20;99.90
20977;DHT22;10647;51.016;3.720;2023-04-16T07:06:49;12.50;99.90
20977;DHT22;10647;51.016;3.720;2023-04-16T07:09:16;12.60;99.90
20977;DHT22;10647;51.016;3.720;2023-04-16T07:11:46;12.80;99.90
20977;DHT22;10647;51.016;3.720;2023-04-16T07:14:16;13.00;99.90
20977;DHT22;10647;51.016;3.720;2023-04-16T07:16:44;13.00;99.90
20977;DHT22;10647;51.016;3.720;2023-04-16T07:19:11;13.10;99.90
20977;DHT22;10647;51.016;3.720;2023-04-16T07:21:39;13.00;99.90
20977;DHT22;10647;51.016;3.720;2023-04-16T07:24:09;13.20;99.90
20977;DHT22;10647;51.016;3.720;2023-04-16T07:26:40;13.20;99.90
20977;DHT22;10647;51.016;3.720;2023-04-16T07:29:07;13.20;99.90
20977;DHT22;10647;51.016;3.720;2023-04-16T07:31:35;13.40;99.90
20977;DHT22;10647;51.016;3.720;2023-04-16T07:34:04;13.60;99.90
20977;DHT22;10647;51.016;3.720;2023-04-16T07:36:32;13.50;99.90
20977;DHT22;10647;51.016;3.720;2023-04-16T07:38:59;13.90;99.90
20977;DHT22;10647;51.016;3.720;2023-04-16T07:41:33;13.90;99.90
20977;DHT22;10647;51.016;3.720;2023-04-16T07:44:02;13.70;99.90
20977;DHT22;10647;51.016;3.720;2023-04-16T07:46:49;13.80;99.90
20977;DHT22;10647;51.016;3.720;2023-04-16T07:49:16;13.90;99.90
20977;DHT22;10647;51.016;3.720;2023-04-16T07:51:44;14.00;99.90
20977;DHT22;10647;51.016;3.720;2023-04-16T07:54:12;14.20;99.90
20977;DHT22;10647;51.016;3.720;2023-04-16T07:56:39;14.50;99.90
20977;DHT22;10647;51.016;3.720;2023-04-16T07:59:07;14.20;99.90
20977;DHT22;10647;51.016;3.720;2023-04-16T08:01:34;14.00;99.90
20977;DHT22;10647;51.016;3.720;2023-04-16T08:04:02;14.10;99.90
20977;DHT22;10647;51.016;3.720;2023-04-16T08:06:30;14.10;99.90
20977;DHT22;10647;51.016;3.720;2023-04-16T08:08:57;14.10;99.90
20977;DHT22;10647;51.016;3.720;2023-04-16T08:11:25;14.20;99.90
20977;DHT22;10647;51.016;3.720;2023-04-16T08:13:52;14.50;99.90
20977;DHT22;10647;51.016;3.720;2023-04-16T08:16:20;14.80;99.90
20977;DHT22;10647;51.016;3.720;2023-04-16T08:18:47;15.10;99.90
20977;DHT22;10647;51.016;3.720;2023-04-16T08:21:16;15.00;99.90
20977;DHT22;10647;51.016;3.720;2023-04-16T08:23:43;15.00;99.90
20977;DHT22;10647;51.016;3.720;2023-04-16T08:26:11;15.10;99.90
20977;DHT22;10647;51.016;3.720;2023-04-16T08:28:38;14.80;99.90
20977;DHT22;10647;51.016;3.720;2023-04-16T08:31:06;14.60;99.90
20977;DHT22;10647;51.016;3.720;2023-04-16T08:33:33;14.60;99.90
20977;DHT22;10647;51.016;3.720;2023-04-16T08:36:01;14.60;99.90
20977;DHT22;10647;51.016;3.720;2023-04-16T08:38:29;14.60;99.90
20977;DHT22;10647;51.016;3.720;2023-04-16T08:40:59;14.60;99.90
20977;DHT22;10647;51.016;3.720;2023-04-16T08:43:27;14.80;99.90
20977;DHT22;10647;51.016;3.720;2023-04-16T08:45:56;14.90;99.90
20977;DHT22;10647;51.016;3.720;2023-04-16T08:48:24;15.10;99.90
20977;DHT22;10647;51.016;3.720;2023-04-16T08:50:54;15.00;99.90
20977;DHT22;10647;51.016;3.720;2023-04-16T08:53:27;15.10;99.90
20977;DHT22;10647;51.016;3.720;2023-04-16T08:55:54;15.20;99.90
20977;DHT22;10647;51.016;3.720;2023-04-16T08:58:24;15.30;99.90
20977;DHT22;10647;51.016;3.720;2023-04-16T09:00:54;15.30;99.90
20977;DHT22;10647;51.016;3.720;2023-04-16T09:03:22;15.50;99.90
20977;DHT22;10647;51.016;3.720;2023-04-16T09:05:49;15.60;99.90
20977;DHT22;10647;51.016;3.720;2023-04-16T09:08:18;15.50;99.90
20977;DHT22;10647;51.016;3.720;2023-04-16T09:10:46;15.40;99.90
20977;DHT22;10647;51.016;3.720;2023-04-16T09:13:14;15.90;99.90
20977;DHT22;10647;51.016;3.720;2023-04-16T09:15:45;16.10;99.90
20977;DHT22;10647;51.016;3.720;2023-04-16T09:18:13;16.00;99.90
20977;DHT22;10647;51.016;3.720;2023-04-16T09:20:41;16.10;99.90
20977;DHT22;10647;51.016;3.720;2023-04-16T09:23:09;16.40;99.90
20977;DHT22;10647;51.016;3.720;2023-04-16T09:25:37;16.40;99.90
20977;DHT22;10647;51.016;3.720;2023-04-16T09:28:11;16.10;99.90
20977;DHT22;10647;51.016;3.720;2023-04-16T09:30:38;16.10;99.90
20977;DHT22;10647;51.016;3.720;2023-04-16T09:33:20;16.30;99.90
20977;DHT22;10647;51.016;3.720;2023-04-16T09:35:51;16.30;99.90
20977;DHT22;10647;51.016;3.720;2023-04-16T09:38:20;16.20;99.90
20977;DHT22;10647;51.016;3.720;2023-04-16T09:40:47;16.10;99.90
20977;DHT22;10647;51.016;3.720;2023-04-16T09:43:17;16.50;99.90
20977;DHT22;10647;51.016;3.720;2023-04-16T09:45:52;16.70;99.90
20977;DHT22;10647;51.016;3.720;2023-04-16T09:51:17;17.10;99.90
20977;DHT22;10647;51.016;3.720;2023-04-16T09:53:44;17.60;99.90
20977;DHT22;10647;51.016;3.720;2023-04-16T09:59:19;18.00;99.90
20977;DHT22;10647;51.016;3.720;2023-04-16T10:01:50;18.20;99.90
20977;DHT22;10647;51.016;3.720;2023-04-16T10:04:20;18.00;99.90
20977;DHT22;10647;51.016;3.720;2023-04-16T10:07:02;18.30;99.90
20977;DHT22;10647;51.016;3.720;2023-04-16T10:09:40;18.60;99.90
20977;DHT22;10647;51.016;3.720;2023-04-16T10:12:09;18.50;99.90
20977;DHT22;10647;51.016;3.720;2023-04-16T10:14:41;18.40;99.90
20977;DHT22;10647;51.016;3.720;2023-04-16T10:17:10;18.60;99.90
20977;DHT22;10647;51.016;3.720;2023-04-16T10:19:38;18.90;99.90
20977;DHT22;10647;51.016;3.720;2023-04-16T10:22:08;19.00;99.90
20977;DHT22;10647;51.016;3.720;2023-04-16T10:24:37;19.20;99.90
20977;DHT22;10647;51.016;3.720;2023-04-16T10:27:05;19.00;99.90
20977;DHT22;10647;51.016;3.720;2023-04-16T10:29:34;18.90;99.90
20977;DHT22;10647;51.016;3.720;2023-04-16T10:32:03;18.80;99.90
20977;DHT22;10647;51.016;3.720;2023-04-16T10:34:32;18.50;99.90
20977;DHT22;10647;51.016;3.720;2023-04-16T10:37:05;18.40;99.90
20977;DHT22;10647;51.016;3.720;2023-04-16T10:39:34;18.30;99.90
20977;DHT22;10647;51.016;3.720;2023-04-16T10:42:11;18.20;99.90
20977;DHT22;10647;51.016;3.720;2023-04-16T10:44:40;18.40;99.90
20977;DHT22;10647;51.016;3.720;2023-04-16T10:47:12;18.60;99.90
20977;DHT22;10647;51.016;3.720;2023-04-16T10:49:40;18.70;99.90
20977;DHT22;10647;51.016;3.720;2023-04-16T10:52:11;18.80;99.90
20977;DHT22;10647;51.016;3.720;2023-04-16T10:54:39;19.10;99.90
20977;DHT22;10647;51.016;3.720;2023-04-16T10:57:15;19.20;99.90
20977;DHT22;10647;51.016;3.720;2023-04-16T10:59:44;19.40;99.90
20977;DHT22;10647;51.016;3.720;2023-04-16T11:02:16;19.50;99.90
20977;DHT22;10647;51.016;3.720;2023-04-16T11:04:47;19.00;99.90
20977;DHT22;10647;51.016;3.720;2023-04-16T11:07:19;19.20;99.90
20977;DHT22;10647;51.016;3.720;2023-04-16T11:09:57;19.40;99.90
20977;DHT22;10647;51.016;3.720;2023-04-16T11:17:47;19.70;99.50
20977;DHT22;10647;51.016;3.720;2023-04-16T11:20:22;19.50;99.80
20977;DHT22;10647;51.016;3.720;2023-04-16T11:22:52;19.20;99.80
20977;DHT22;10647;51.016;3.720;2023-04-16T11:25:26;18.90;99.90
20977;DHT22;10647;51.016;3.720;2023-04-16T11:27:55;18.70;99.90
20977;DHT22;10647;51.016;3.720;2023-04-16T11:30:32;18.50;99.90
20977;DHT22;10647;51.016;3.720;2023-04-16T11:33:03;18.30;99.90
20977;DHT22;10647;51.016;3.720;2023-04-16T11:35:31;18.30;99.90
20977;DHT22;10647;51.016;3.720;2023-04-16T11:37:58;18.20;99.90
20977;DHT22;10647;51.016;3.720;2023-04-16T11:40:30;18.10;99.90
20977;DHT22;10647;51.016;3.720;2023-04-16T11:43:13;18.40;99.90
20977;DHT22;10647;51.016;3.720;2023-04-16T11:46:04;18.30;99.90
20977;DHT22;10647;51.016;3.720;2023-04-16T11:48:50;18.20;99.90
20977;DHT22;10647;51.016;3.720;2023-04-16T11:51:19;18.00;99.90
20977;DHT22;10647;51.016;3.720;2023-04-16T11:53:53;17.90;99.90
20977;DHT22;10647;51.016;3.720;2023-04-16T11:56:27;17.90;99.90
20977;DHT22;10647;51.016;3.720;2023-04-16T11:59:10;17.70;99.90
20977;DHT22;10647;51.016;3.720;2023-04-16T12:01:56;17.70;99.90
20977;DHT22;10647;51.016;3.720;2023-04-16T12:04:32;17.80;99.90
20977;DHT22;10647;51.016;3.720;2023-04-16T12:07:10;17.80;99.90
20977;DHT22;10647;51.016;3.720;2023-04-16T12:09:40;18.10;99.90
20977;DHT22;10647;51.016;3.720;2023-04-16T12:12:30;17.90;99.90
20977;DHT22;10647;51.016;3.720;2023-04-16T12:14:58;18.00;99.90
20977;DHT22;10647;51.016;3.720;2023-04-16T12:17:27;18.30;99.90
20977;DHT22;10647;51.016;3.720;2023-04-16T12:19:57;18.40;99.90
20977;DHT22;10647;51.016;3.720;2023-04-16T12:22:29;18.40;99.90
20977;DHT22;10647;51.016;3.720;2023-04-16T12:25:01;18.40;99.90
20977;DHT22;10647;51.016;3.720;2023-04-16T12:30:33;18.90;99.90
20977;DHT22;10647;51.016;3.720;2023-04-16T12:33:23;18.90;99.90
20977;DHT22;10647;51.016;3.720;2023-04-16T12:35:51;18.70;99.90
20977;DHT22;10647;51.016;3.720;2023-04-16T12:38:19;18.40;99.90
20977;DHT22;10647;51.016;3.720;2023-04-16T12:40:46;18.20;99.90
20977;DHT22;10647;51.016;3.720;2023-04-16T12:43:14;18.00;99.90
20977;DHT22;10647;51.016;3.720;2023-04-16T12:45:44;17.90;99.90
20977;DHT22;10647;51.016;3.720;2023-04-16T12:48:12;17.60;99.90
20977;DHT22;10647;51.016;3.720;2023-04-16T12:50:39;17.60;99.90
20977;DHT22;10647;51.016;3.720;2023-04-16T12:53:09;17.60;99.90
20977;DHT22;10647;51.016;3.720;2023-04-16T12:55:36;17.60;99.90
20977;DHT22;10647;51.016;3.720;2023-04-16T12:58:04;17.60;99.90
20977;DHT22;10647;51.016;3.720;2023-04-16T13:00:32;17.50;99.90
20977;DHT22;10647;51.016;3.720;2023-04-16T13:02:59;17.80;99.90
20977;DHT22;10647;51.016;3.720;2023-04-16T13:05:30;17.90;99.90
20977;DHT22;10647;51.016;3.720;2023-04-16T13:07:57;17.80;99.90
20977;DHT22;10647;51.016;3.720;2023-04-16T13:10:25;18.00;99.90
20977;DHT22;10647;51.016;3.720;2023-04-16T13:15:45;18.20;99.90
20977;DHT22;10647;51.016;3.720;2023-04-16T13:18:16;18.00;99.90
20977;DHT22;10647;51.016;3.720;2023-04-16T13:20:47;18.00;99.90
20977;DHT22;10647;51.016;3.720;2023-04-16T13:23:32;17.70;99.90
20977;DHT22;10647;51.016;3.720;2023-04-16T13:26:03;17.80;99.90
20977;DHT22;10647;51.016;3.720;2023-04-16T13:31:11;18.00;99.90
20977;DHT22;10647;51.016;3.720;2023-04-16T13:33:40;17.90;99.90
20977;DHT22;10647;51.016;3.720;2023-04-16T13:36:07;17.90;99.90
20977;DHT22;10647;51.016;3.720;2023-04-16T13:38:35;18.00;99.90
20977;DHT22;10647;51.016;3.720;2023-04-16T13:41:06;18.30;99.90
20977;DHT22;10647;51.016;3.720;2023-04-16T13:43:34;18.80;99.90
20977;DHT22;10647;51.016;3.720;2023-04-16T13:46:04;19.40;99.90
20977;DHT22;10647;51.016;3.720;2023-04-16T13:48:33;19.90;99.90
20977;DHT22;10647;51.016;3.720;2023-04-16T13:51:02;20.30;99.40
20977;DHT22;10647;51.016;3.720;2023-04-16T13:53:29;20.50;98.60
20977;DHT22;10647;51.016;3.720;2023-04-16T13:55:57;20.20;98.10
20977;DHT22;10647;51.016;3.720;2023-04-16T13:58:25;20.00;98.50
20977;DHT22;10647;51.016;3.720;2023-04-16T14:00:53;20.00;98.60
20977;DHT22;10647;51.016;3.720;2023-04-16T14:03:23;19.80;98.40
20977;DHT22;10647;51.016;3.720;2023-04-16T14:05:52;19.70;98.60
20977;DHT22;10647;51.016;3.720;2023-04-16T14:08:25;19.40;98.70
20977;DHT22;10647;51.016;3.720;2023-04-16T14:10:55;19.50;98.80
20977;DHT22;10647;51.016;3.720;2023-04-16T14:13:24;19.70;98.50
20977;DHT22;10647;51.016;3.720;2023-04-16T14:15:57;19.70;98.20
20977;DHT22;10647;51.016;3.720;2023-04-16T14:18:25;19.70;98.20
20977;DHT22;10647;51.016;3.720;2023-04-16T14:20:53;19.80;98.10
20977;DHT22;10647;51.016;3.720;2023-04-16T14:23:20;20.20;97.70
20977;DHT22;10647;51.016;3.720;2023-04-16T14:25:51;20.90;96.80
20977;DHT22;10647;51.016;3.720;2023-04-16T14:28:22;23.00;95.10
20977;DHT22;10647;51.016;3.720;2023-04-16T14:30:50;24.40;93.20
20977;DHT22;10647;51.016;3.720;2023-04-16T14:33:18;25.30;91.00
20977;DHT22;10647;51.016;3.720;2023-04-16T14:35:46;23.90;90.70
20977;DHT22;10647;51.016;3.720;2023-04-16T14:38:16;23.30;91.20
20977;DHT22;10647;51.016;3.720;2023-04-16T14:40:44;23.00;91.50
20977;DHT22;10647;51.016;3.720;2023-04-16T14:43:12;22.70;91.60
20977;DHT22;10647;51.016;3.720;2023-04-16T14:45:40;22.70;91.60
20977;DHT22;10647;51.016;3.720;2023-04-16T14:48:07;22.70;91.70
20977;DHT22;10647;51.016;3.720;2023-04-16T14:50:35;22.60;91.40
20977;DHT22;10647;51.016;3.720;2023-04-16T14:56:28;22.40;91.10
20977;DHT22;10647;51.016;3.720;2023-04-16T14:59:30;22.50;90.80
20977;DHT22;10647;51.016;3.720;2023-04-16T15:05:19;21.90;91.70
20977;DHT22;10647;51.016;3.720;2023-04-16T15:07:49;21.80;91.80
20977;DHT22;10647;51.016;3.720;2023-04-16T15:10:18;21.30;92.20
20977;DHT22;10647;51.016;3.720;2023-04-16T15:12:47;21.10;92.70
20977;DHT22;10647;51.016;3.720;2023-04-16T15:15:20;20.50;93.20
20977;DHT22;10647;51.016;3.720;2023-04-16T15:17:54;20.40;93.60
20977;DHT22;10647;51.016;3.720;2023-04-16T15:20:23;20.50;93.40
20977;DHT22;10647;51.016;3.720;2023-04-16T15:22:50;20.80;93.40
20977;DHT22;10647;51.016;3.720;2023-04-16T15:25:24;21.40;93.20
20977;DHT22;10647;51.016;3.720;2023-04-16T15:27:51;21.70;93.00
20977;DHT22;10647;51.016;3.720;2023-04-16T15:30:19;21.80;92.70
20977;DHT22;10647;51.016;3.720;2023-04-16T15:35:27;21.60;92.20
20977;DHT22;10647;51.016;3.720;2023-04-16T15:38:14;21.50;92.30
20977;DHT22;10647;51.016;3.720;2023-04-16T15:40:44;21.50;92.40
20977;DHT22;10647;51.016;3.720;2023-04-16T15:43:11;21.80;91.70
20977;DHT22;10647;51.016;3.720;2023-04-16T15:45:39;21.00;92.30
20977;DHT22;10647;51.016;3.720;2023-04-16T15:48:06;21.00;92.60
20977;DHT22;10647;51.016;3.720;2023-04-16T15:50:34;21.30;92.40
20977;DHT22;10647;51.016;3.720;2023-04-16T15:53:04;21.40;92.10
20977;DHT22;10647;51.016;3.720;2023-04-16T15:55:35;22.00;91.80
20977;DHT22;10647;51.016;3.720;2023-04-16T15:58:03;21.60;91.20
20977;DHT22;10647;51.016;3.720;2023-04-16T16:00:31;21.20;91.60
20977;DHT22;10647;51.016;3.720;2023-04-16T16:02:58;21.20;91.80
20977;DHT22;10647;51.016;3.720;2023-04-16T16:05:26;21.20;91.90
20977;DHT22;10647;51.016;3.720;2023-04-16T16:07:53;21.10;91.70
20977;DHT22;10647;51.016;3.720;2023-04-16T16:10:22;21.00;92.00
20977;DHT22;10647;51.016;3.720;2023-04-16T16:12:49;20.90;92.10
20977;DHT22;10647;51.016;3.720;2023-04-16T16:15:17;20.80;92.20